Campbell, Alabama
Current Conditions -  °F | °C
As of 10:55 PM on Wednesday 22 Oct 2014 (Local Time) from KDYA Reporting Station
Clear Clear  
Wind Chill: 51°   Ceiling: Unl
Heat Index: 51°   Visibility: 10mi
Dew Point: 44°   Wind: 3mph
Humidity: 75%   Direction: 20°NNE
Pressure: 30.13"   Gusts: NA
Location:  31.92°N, 87.98°W
Report Text: KDYA 230355Z AUTO 02003KT 10SM CLR 11/07 A3013 RMK AO2 T01080066
Loading
Personal Weather Stations






























Interactive Weather Map
Tropical Storm Tracking
New forecast layout! Learn more

10-Day Weather Forecast

Advertisements
Track Severe Weather on mobile